Terminal Aerodrome Forecast
Issued by NWS

Home | Current Version | Previous Version | Text Only | Print | Product List | Glossary On
Versions: 1 2 3 4 5 6 7 8 9 10 11 12 13 14 15 16 17 18 19 20 21 22 23 24
000
FTUS43 KPAH 260423 AAA
TAFCGI
TAF AMD
KCGI 260423Z 2604/2624 14009KT P6SM BKN130
     FM260800 15008KT 5SM -SHRA BR BKN025
     FM261400 20012G18KT P6SM BKN040
     FM261900 20012KT P6SM BKN050=

USA.gov is the U.S. government's official web portal to all federal, state and local government web resources and services.